sensor_id;sensor_type;location;lat;lon;timestamp;pressure;altitude;pressure_sealevel;temperature;humidity
79123;BME280;68526;44.600;26.032;2024-03-08T00:00:07;101050.19;;;3.93;69.28
79123;BME280;68526;44.600;26.032;2024-03-08T00:00:25;101047.75;;;3.92;69.46
79123;BME280;68526;44.600;26.032;2024-03-08T00:00:41;101053.44;;;3.95;69.40
79123;BME280;68526;44.600;26.032;2024-03-08T00:00:58;101055.34;;;3.95;69.23
79123;BME280;68526;44.600;26.032;2024-03-08T00:01:14;101053.19;;;3.97;69.47
79123;BME280;68526;44.600;26.032;2024-03-08T00:01:32;101054.84;;;3.98;69.42
79123;BME280;68526;44.600;26.032;2024-03-08T00:01:48;101047.47;;;3.93;69.20
79123;BME280;68526;44.600;26.032;2024-03-08T00:02:04;101057.56;;;3.98;69.48
79123;BME280;68526;44.600;26.032;2024-03-08T00:02:23;101051.56;;;3.96;69.47
79123;BME280;68526;44.600;26.032;2024-03-08T00:02:39;101048.28;;;3.94;69.45
79123;BME280;68526;44.600;26.032;2024-03-08T00:02:55;101057.78;;;3.96;69.34
79123;BME280;68526;44.600;26.032;2024-03-08T00:03:11;101052.94;;;3.98;69.46
79123;BME280;68526;44.600;26.032;2024-03-08T00:03:27;101055.06;;;3.96;69.31
79123;BME280;68526;44.600;26.032;2024-03-08T00:03:44;101048.34;;;3.99;69.13
79123;BME280;68526;44.600;26.032;2024-03-08T00:04:01;101058.38;;;3.98;69.05
79123;BME280;68526;44.600;26.032;2024-03-08T00:04:18;101053.50;;;4.00;68.97
79123;BME280;68526;44.600;26.032;2024-03-08T00:04:34;101057.56;;;3.98;69.08
79123;BME280;68526;44.600;26.032;2024-03-08T00:04:50;101060.50;;;3.96;69.15
79123;BME280;68526;44.600;26.032;2024-03-08T00:05:07;101051.56;;;3.96;69.10
79123;BME280;68526;44.600;26.032;2024-03-08T00:05:24;101051.56;;;3.96;68.99
79123;BME280;68526;44.600;26.032;2024-03-08T00:05:40;101054.25;;;3.96;69.34
79123;BME280;68526;44.600;26.032;2024-03-08T00:05:57;101057.56;;;3.98;69.02
79123;BME280;68526;44.600;26.032;2024-03-08T00:06:13;101054.25;;;3.96;68.89
79123;BME280;68526;44.600;26.032;2024-03-08T00:06:29;101053.97;;;3.92;69.47
79123;BME280;68526;44.600;26.032;2024-03-08T00:06:46;101054.78;;;3.93;69.45
79123;BME280;68526;44.600;26.032;2024-03-08T00:07:03;101049.91;;;3.95;69.37
79123;BME280;68526;44.600;26.032;2024-03-08T00:07:19;101052.63;;;3.95;69.60
79123;BME280;68526;44.600;26.032;2024-03-08T00:07:35;101054.53;;;3.94;69.36
79123;BME280;68526;44.600;26.032;2024-03-08T00:07:51;101046.66;;;3.93;69.21
79123;BME280;68526;44.600;26.032;2024-03-08T00:08:09;101048.56;;;3.92;69.43
79123;BME280;68526;44.600;26.032;2024-03-08T00:08:25;101054.78;;;3.93;69.01
79123;BME280;68526;44.600;26.032;2024-03-08T00:08:41;101054.53;;;3.94;69.21
79123;BME280;68526;44.600;26.032;2024-03-08T00:08:58;101050.94;;;3.89;69.76
79123;BME280;68526;44.600;26.032;2024-03-08T00:09:14;101054.22;;;3.91;69.31
79123;BME280;68526;44.600;26.032;2024-03-08T00:09:31;101050.13;;;3.88;69.19
79123;BME280;68526;44.600;26.032;2024-03-08T00:09:47;101046.94;;;3.91;69.10
79123;BME280;68526;44.600;26.032;2024-03-08T00:10:04;101052.09;;;3.93;69.38
79123;BME280;68526;44.600;26.032;2024-03-08T00:10:20;101051.25;;;3.92;69.22
79123;BME280;68526;44.600;26.032;2024-03-08T00:10:37;101054.75;;;3.88;69.80
79123;BME280;68526;44.600;26.032;2024-03-08T00:10:54;101050.94;;;3.89;69.67
79123;BME280;68526;44.600;26.032;2024-03-08T00:11:10;101050.94;;;3.89;70.16
79123;BME280;68526;44.600;26.032;2024-03-08T00:11:26;101050.69;;;3.90;70.10
79123;BME280;68526;44.600;26.032;2024-03-08T00:11:42;101054.47;;;3.89;69.76
79123;BME280;68526;44.600;26.032;2024-03-08T00:11:58;101045.81;;;3.87;69.17
79123;BME280;68526;44.600;26.032;2024-03-08T00:12:15;101047.44;;;3.88;69.58
79123;BME280;68526;44.600;26.032;2024-03-08T00:12:31;101049.53;;;3.81;69.81
79123;BME280;68526;44.600;26.032;2024-03-08T00:12:48;101048.16;;;3.79;70.25
79123;BME280;68526;44.600;26.032;2024-03-08T00:13:05;101047.09;;;3.80;70.11
79123;BME280;68526;44.600;26.032;2024-03-08T00:13:21;101050.34;;;3.82;70.22
79123;BME280;68526;44.600;26.032;2024-03-08T00:13:37;101046.84;;;3.81;70.07
79123;BME280;68526;44.600;26.032;2024-03-08T00:13:53;101048.19;;;3.84;70.00
79123;BME280;68526;44.600;26.032;2024-03-08T00:14:09;101010.84;;;3.59;70.05
79123;BME280;68526;44.600;26.032;2024-03-08T00:14:25;101047.66;;;3.82;69.88
79123;BME280;68526;44.600;26.032;2024-03-08T00:14:41;101044.94;;;3.82;69.87
79123;BME280;68526;44.600;26.032;2024-03-08T00:15:00;101054.97;;;3.81;70.14
79123;BME280;68526;44.600;26.032;2024-03-08T00:15:17;101050.03;;;3.78;70.01
79123;BME280;68526;44.600;26.032;2024-03-08T00:15:33;101047.34;;;3.78;70.34
79123;BME280;68526;44.600;26.032;2024-03-08T00:15:50;101040.84;;;3.79;69.95
79123;BME280;68526;44.600;26.032;2024-03-08T00:16:06;101045.44;;;3.79;70.26
79123;BME280;68526;44.600;26.032;2024-03-08T00:16:24;101044.63;;;3.78;69.92
79123;BME280;68526;44.600;26.032;2024-03-08T00:16:41;101042.72;;;3.79;70.06
79123;BME280;68526;44.600;26.032;2024-03-08T00:16:59;101054.16;;;3.81;70.09
79123;BME280;68526;44.600;26.032;2024-03-08T00:17:15;101044.38;;;3.80;70.56
79123;BME280;68526;44.600;26.032;2024-03-08T00:17:33;101045.16;;;3.75;70.41
79123;BME280;68526;44.600;26.032;2024-03-08T00:17:49;101051.38;;;3.75;70.26
79123;BME280;68526;44.600;26.032;2024-03-08T00:18:05;101042.44;;;3.75;69.94
79123;BME280;68526;44.600;26.032;2024-03-08T00:18:21;101038.38;;;3.78;70.02
79123;BME280;68526;44.600;26.032;2024-03-08T00:18:38;101040.84;;;3.79;69.87
79123;BME280;68526;44.600;26.032;2024-03-08T00:18:54;101046.03;;;3.81;69.90
79123;BME280;68526;44.600;26.032;2024-03-08T00:19:10;101044.63;;;3.78;69.83
79123;BME280;68526;44.600;26.032;2024-03-08T00:19:26;101044.13;;;3.81;70.15
79123;BME280;68526;44.600;26.032;2024-03-08T00:19:42;101043.03;;;3.82;70.06
79123;BME280;68526;44.600;26.032;2024-03-08T00:19:59;101047.38;;;3.83;69.85
79123;BME280;68526;44.600;26.032;2024-03-08T00:20:15;101043.03;;;3.82;69.77
79123;BME280;68526;44.600;26.032;2024-03-08T00:20:33;101041.91;;;3.78;70.44
79123;BME280;68526;44.600;26.032;2024-03-08T00:20:50;101046.84;;;3.81;69.79
79123;BME280;68526;44.600;26.032;2024-03-08T00:21:06;101041.41;;;3.81;69.99
79123;BME280;68526;44.600;26.032;2024-03-08T00:21:24;101038.13;;;3.79;69.82
79123;BME280;68526;44.600;26.032;2024-03-08T00:21:40;101044.38;;;3.80;69.87
79123;BME280;68526;44.600;26.032;2024-03-08T00:21:57;101047.66;;;3.82;69.80
79123;BME280;68526;44.600;26.032;2024-03-08T00:22:13;101046.84;;;3.81;70.14
79123;BME280;68526;44.600;26.032;2024-03-08T00:22:29;101042.22;;;3.82;69.77
79123;BME280;68526;44.600;26.032;2024-03-08T00:22:47;101041.41;;;3.81;70.18
79123;BME280;68526;44.600;26.032;2024-03-08T00:23:03;101038.69;;;3.81;70.32
79123;BME280;68526;44.600;26.032;2024-03-08T00:23:19;101037.34;;;3.84;70.21
79123;BME280;68526;44.600;26.032;2024-03-08T00:23:35;101038.75;;;3.86;69.91
79123;BME280;68526;44.600;26.032;2024-03-08T00:23:52;101038.47;;;3.88;69.69
79123;BME280;68526;44.600;26.032;2024-03-08T00:24:09;101036.84;;;3.87;69.89
79123;BME280;68526;44.600;26.032;2024-03-08T00:24:25;101040.88;;;3.84;69.94
79123;BME280;68526;44.600;26.032;2024-03-08T00:24:44;101037.63;;;3.82;70.13
79123;BME280;68526;44.600;26.032;2024-03-08T00:25:01;101040.06;;;3.84;69.92
79123;BME280;68526;44.600;26.032;2024-03-08T00:25:17;101041.47;;;3.86;70.10
79123;BME280;68526;44.600;26.032;2024-03-08T00:25:34;101046.31;;;3.84;70.15
79123;BME280;68526;44.600;26.032;2024-03-08T00:25:50;101038.13;;;3.79;70.21
79123;BME280;68526;44.600;26.032;2024-03-08T00:26:06;101045.44;;;3.79;70.30
79123;BME280;68526;44.600;26.032;2024-03-08T00:26:24;101031.88;;;3.79;70.15
79123;BME280;68526;44.600;26.032;2024-03-08T00:26:40;101039.25;;;3.83;70.29
79123;BME280;68526;44.600;26.032;2024-03-08T00:26:57;101032.97;;;3.78;70.65
79123;BME280;68526;44.600;26.032;2024-03-08T00:27:14;101024.78;;;3.72;70.73
79123;BME280;68526;44.600;26.032;2024-03-08T00:27:31;101034.00;;;3.71;70.54
79123;BME280;68526;44.600;26.032;2024-03-08T00:27:47;101034.53;;;3.73;70.75
79123;BME280;68526;44.600;26.032;2024-03-08T00:28:05;101038.66;;;3.76;70.61
79123;BME280;68526;44.600;26.032;2024-03-08T00:28:21;101030.75;;;3.69;70.67
79123;BME280;68526;44.600;26.032;2024-03-08T00:28:37;101034.00;;;3.71;70.45
79123;BME280;68526;44.600;26.032;2024-03-08T00:28:53;101034.00;;;3.71;70.46
79123;BME280;68526;44.600;26.032;2024-03-08T00:29:09;101037.53;;;3.72;70.28
79123;BME280;68526;44.600;26.032;2024-03-08T00:29:26;101029.13;;;3.73;70.35
79123;BME280;68526;44.600;26.032;2024-03-08T00:29:43;101034.31;;;3.75;70.29
79123;BME280;68526;44.600;26.032;2024-03-08T00:29:59;101031.03;;;3.73;70.59
79123;BME280;68526;44.600;26.032;2024-03-08T00:30:16;101034.53;;;3.68;70.62
79123;BME280;68526;44.600;26.032;2024-03-08T00:30:32;101032.88;;;3.67;70.98
79123;BME280;68526;44.600;26.032;2024-03-08T00:30:49;101027.72;;;3.66;70.36
79123;BME280;68526;44.600;26.032;2024-03-08T00:31:05;101030.13;;;3.62;70.87
79123;BME280;68526;44.600;26.032;2024-03-08T00:31:22;101032.88;;;3.67;71.00
79123;BME280;68526;44.600;26.032;2024-03-08T00:31:38;101034.22;;;3.65;70.82
79123;BME280;68526;44.600;26.032;2024-03-08T00:31:54;101030.69;;;3.64;71.10
79123;BME280;68526;44.600;26.032;2024-03-08T00:32:10;101032.31;;;3.65;70.67
79123;BME280;68526;44.600;26.032;2024-03-08T00:32:28;101029.88;;;3.64;70.99
79123;BME280;68526;44.600;26.032;2024-03-08T00:32:46;101033.72;;;3.68;70.62
79123;BME280;68526;44.600;26.032;2024-03-08T00:33:02;101027.22;;;3.69;70.52
79123;BME280;68526;44.600;26.032;2024-03-08T00:33:18;101034.81;;;3.72;70.55
79123;BME280;68526;44.600;26.032;2024-03-08T00:33:34;101027.44;;;3.67;70.54
79123;BME280;68526;44.600;26.032;2024-03-08T00:33:52;101027.44;;;3.67;70.61
79123;BME280;68526;44.600;26.032;2024-03-08T00:34:08;101032.63;;;3.69;70.82
79123;BME280;68526;44.600;26.032;2024-03-08T00:34:27;101025.31;;;3.69;70.80
79123;BME280;68526;44.600;26.032;2024-03-08T00:34:43;101026.41;;;3.68;70.90
79123;BME280;68526;44.600;26.032;2024-03-08T00:34:59;101021.22;;;3.67;70.90
79123;BME280;68526;44.600;26.032;2024-03-08T00:35:15;101024.75;;;3.67;70.51
79123;BME280;68526;44.600;26.032;2024-03-08T00:35:31;101030.16;;;3.67;70.47
79123;BME280;68526;44.600;26.032;2024-03-08T00:35:48;101024.75;;;3.67;70.48
79123;BME280;68526;44.600;26.032;2024-03-08T00:36:05;101027.22;;;3.69;70.45
79123;BME280;68526;44.600;26.032;2024-03-08T00:36:23;101029.59;;;3.65;70.46
79123;BME280;68526;44.600;26.032;2024-03-08T00:36:39;101024.44;;;3.64;70.52
79123;BME280;68526;44.600;26.032;2024-03-08T00:36:55;101030.44;;;3.66;70.64
79123;BME280;68526;44.600;26.032;2024-03-08T00:37:11;101027.16;;;3.64;70.85
79123;BME280;68526;44.600;26.032;2024-03-08T00:37:27;101027.72;;;3.66;70.83
79123;BME280;68526;44.600;26.032;2024-03-08T00:37:43;101025.59;;;3.68;71.28
79123;BME280;68526;44.600;26.032;2024-03-08T00:38:02;101028.78;;;3.65;70.88
79123;BME280;68526;44.600;26.032;2024-03-08T00:38:18;101021.69;;;3.59;71.54
79123;BME280;68526;44.600;26.032;2024-03-08T00:38:34;101028.25;;;3.63;71.62
79123;BME280;68526;44.600;26.032;2024-03-08T00:38:50;101021.19;;;3.62;71.29
79123;BME280;68526;44.600;26.032;2024-03-08T00:39:06;101021.44;;;3.60;71.30
79123;BME280;68526;44.600;26.032;2024-03-08T00:39:23;101020.13;;;3.63;71.35
79123;BME280;68526;44.600;26.032;2024-03-08T00:39:39;101020.66;;;3.65;71.13
79123;BME280;68526;44.600;26.032;2024-03-08T00:39:55;101018.50;;;3.67;70.86
79123;BME280;68526;44.600;26.032;2024-03-08T00:40:13;101025.59;;;3.68;70.94
79123;BME280;68526;44.600;26.032;2024-03-08T00:40:29;101023.94;;;3.67;71.12
79123;BME280;68526;44.600;26.032;2024-03-08T00:40:45;101025.31;;;3.69;70.87
79123;BME280;68526;44.600;26.032;2024-03-08T00:41:01;101020.72;;;3.70;71.08
79123;BME280;68526;44.600;26.032;2024-03-08T00:41:17;101023.44;;;3.70;71.15
79123;BME280;68526;44.600;26.032;2024-03-08T00:41:34;101021.78;;;3.69;70.92
79123;BME280;68526;44.600;26.032;2024-03-08T00:41:50;101022.59;;;3.69;70.95
79123;BME280;68526;44.600;26.032;2024-03-08T00:42:06;101015.28;;;3.70;71.28
79123;BME280;68526;44.600;26.032;2024-03-08T00:42:23;101015.28;;;3.70;71.45
79123;BME280;68526;44.600;26.032;2024-03-08T00:42:40;101015.03;;;3.71;70.84
79123;BME280;68526;44.600;26.032;2024-03-08T00:42:56;101021.25;;;3.72;70.97
79123;BME280;68526;44.600;26.032;2024-03-08T00:43:13;101020.44;;;3.71;70.76
79123;BME280;68526;44.600;26.032;2024-03-08T00:43:29;101019.63;;;3.71;71.25
79123;BME280;68526;44.600;26.032;2024-03-08T00:43:45;101018.00;;;3.70;70.91
79123;BME280;68526;44.600;26.032;2024-03-08T00:44:03;101018.56;;;3.72;70.76
79123;BME280;68526;44.600;26.032;2024-03-08T00:44:21;101022.06;;;3.72;71.10
79123;BME280;68526;44.600;26.032;2024-03-08T00:44:37;101018.56;;;3.72;71.09
79123;BME280;68526;44.600;26.032;2024-03-08T00:44:53;101018.00;;;3.70;71.27
79123;BME280;68526;44.600;26.032;2024-03-08T00:45:10;101010.97;;;3.69;71.13
79123;BME280;68526;44.600;26.032;2024-03-08T00:45:26;101016.38;;;3.69;70.54
79123;BME280;68526;44.600;26.032;2024-03-08T00:45:42;101013.91;;;3.67;70.49
79123;BME280;68526;44.600;26.032;2024-03-08T00:46:00;101012.28;;;3.66;70.68
79123;BME280;68526;44.600;26.032;2024-03-08T00:46:16;101019.91;;;3.69;70.59
79123;BME280;68526;44.600;26.032;2024-03-08T00:46:32;101019.91;;;3.69;70.78
79123;BME280;68526;44.600;26.032;2024-03-08T00:46:49;101012.31;;;3.71;70.35
79123;BME280;68526;44.600;26.032;2024-03-08T00:47:06;101011.78;;;3.69;70.45
79123;BME280;68526;44.600;26.032;2024-03-08T00:47:22;101012.59;;;3.70;70.55
79123;BME280;68526;44.600;26.032;2024-03-08T00:47:38;101008.53;;;3.72;70.76
79123;BME280;68526;44.600;26.032;2024-03-08T00:47:59;101014.25;;;3.76;70.46
79123;BME280;68526;44.600;26.032;2024-03-08T00:48:16;101010.75;;;3.75;70.82
79123;BME280;68526;44.600;26.032;2024-03-08T00:48:32;101008.56;;;3.78;70.45
79123;BME280;68526;44.600;26.032;2024-03-08T00:48:48;101010.47;;;3.77;70.85
79123;BME280;68526;44.600;26.032;2024-03-08T00:49:04;101014.00;;;3.78;70.94
79123;BME280;68526;44.600;26.032;2024-03-08T00:49:20;101012.38;;;3.77;70.89
79123;BME280;68526;44.600;26.032;2024-03-08T00:49:37;101009.38;;;3.78;70.63
79123;BME280;68526;44.600;26.032;2024-03-08T00:49:55;101015.66;;;3.84;70.69
79123;BME280;68526;44.600;26.032;2024-03-08T00:50:12;101015.94;;;3.82;70.67
79123;BME280;68526;44.600;26.032;2024-03-08T00:50:28;101010.19;;;3.79;70.34
79123;BME280;68526;44.600;26.032;2024-03-08T00:50:44;101010.47;;;3.77;70.71
79123;BME280;68526;44.600;26.032;2024-03-08T00:51:01;101010.47;;;3.77;70.38
79123;BME280;68526;44.600;26.032;2024-03-08T00:51:19;101012.91;;;3.79;70.58
79123;BME280;68526;44.600;26.032;2024-03-08T00:51:37;101011.59;;;3.81;70.40
79123;BME280;68526;44.600;26.032;2024-03-08T00:51:53;101015.94;;;3.82;70.42
79123;BME280;68526;44.600;26.032;2024-03-08T00:52:09;101010.78;;;3.81;70.19
79123;BME280;68526;44.600;26.032;2024-03-08T00:52:26;101009.34;;;3.73;70.91
79123;BME280;68526;44.600;26.032;2024-03-08T00:52:42;101007.22;;;3.75;70.65
79123;BME280;68526;44.600;26.032;2024-03-08T00:52:58;101009.91;;;3.75;70.33
79123;BME280;68526;44.600;26.032;2024-03-08T00:53:14;101005.06;;;3.77;70.75
79123;BME280;68526;44.600;26.032;2024-03-08T00:53:32;101009.66;;;3.77;70.61
79123;BME280;68526;44.600;26.032;2024-03-08T00:53:49;101007.75;;;3.77;70.23
79123;BME280;68526;44.600;26.032;2024-03-08T00:54:05;101012.91;;;3.79;70.70
79123;BME280;68526;44.600;26.032;2024-03-08T00:54:21;101013.72;;;3.79;70.53
79123;BME280;68526;44.600;26.032;2024-03-08T00:54:38;101011.88;;;3.80;70.25
79123;BME280;68526;44.600;26.032;2024-03-08T00:54:54;100973.53;;;3.66;70.43
79123;BME280;68526;44.600;26.032;2024-03-08T00:55:10;101006.72;;;3.83;70.29
79123;BME280;68526;44.600;26.032;2024-03-08T00:55:26;101011.06;;;3.84;70.23
79123;BME280;68526;44.600;26.032;2024-03-08T00:55:45;101009.16;;;3.85;70.32
79123;BME280;68526;44.600;26.032;2024-03-08T00:56:02;101010.81;;;3.86;70.41
79123;BME280;68526;44.600;26.032;2024-03-08T00:56:20;101007.28;;;3.85;70.29
79123;BME280;68526;44.600;26.032;2024-03-08T00:56:36;101005.63;;;3.84;70.25
79123;BME280;68526;44.600;26.032;2024-03-08T00:56:54;101008.13;;;3.86;70.19
79123;BME280;68526;44.600;26.032;2024-03-08T00:57:11;101003.75;;;3.85;70.54
79123;BME280;68526;44.600;26.032;2024-03-08T00:57:27;101004.81;;;3.84;70.55
79123;BME280;68526;44.600;26.032;2024-03-08T00:57:43;101004.81;;;3.84;70.49
79123;BME280;68526;44.600;26.032;2024-03-08T00:58:00;101006.72;;;3.83;70.28
79123;BME280;68526;44.600;26.032;2024-03-08T00:58:17;101004.81;;;3.84;70.33
79123;BME280;68526;44.600;26.032;2024-03-08T00:58:33;101002.88;;;3.79;70.45
79123;BME280;68526;44.600;26.032;2024-03-08T00:58:49;101012.97;;;3.84;70.30
79123;BME280;68526;44.600;26.032;2024-03-08T00:59:06;101001.03;;;3.80;70.35
79123;BME280;68526;44.600;26.032;2024-03-08T00:59:23;100999.69;;;3.82;70.62
79123;BME280;68526;44.600;26.032;2024-03-08T00:59:39;101004.56;;;3.80;70.66
79123;BME280;68526;44.600;26.032;2024-03-08T00:59:55;101002.94;;;3.84;70.57
79123;BME280;68526;44.600;26.032;2024-03-08T01:00:12;101008.34;;;3.84;70.34
79123;BME280;68526;44.600;26.032;2024-03-08T01:00:30;101004.00;;;3.83;70.67
79123;BME280;68526;44.600;26.032;2024-03-08T01:00:46;101002.13;;;3.84;70.54
79123;BME280;68526;44.600;26.032;2024-03-08T01:01:02;101000.50;;;3.83;70.77
79123;BME280;68526;44.600;26.032;2024-03-08T01:01:19;100998.84;;;3.82;70.87
79123;BME280;68526;44.600;26.032;2024-03-08T01:01:35;101002.06;;;3.79;70.70
79123;BME280;68526;44.600;26.032;2024-03-08T01:01:51;101005.09;;;3.82;70.81
79123;BME280;68526;44.600;26.032;2024-03-08T01:02:08;101002.38;;;3.82;70.95
79123;BME280;68526;44.600;26.032;2024-03-08T01:02:24;101002.13;;;3.84;70.55
79123;BME280;68526;44.600;26.032;2024-03-08T01:02:40;101000.53;;;3.88;70.38
79123;BME280;68526;44.600;26.032;2024-03-08T01:02:56;101001.34;;;3.88;70.51
79123;BME280;68526;44.600;26.032;2024-03-08T01:03:14;100997.00;;;3.87;70.59
79123;BME280;68526;44.600;26.032;2024-03-08T01:03:30;100995.94;;;3.88;70.43
79123;BME280;68526;44.600;26.032;2024-03-08T01:03:47;100995.94;;;3.88;70.44
79123;BME280;68526;44.600;26.032;2024-03-08T01:04:04;100997.28;;;3.86;70.60
79123;BME280;68526;44.600;26.032;2024-03-08T01:04:21;100996.44;;;3.85;70.51
79123;BME280;68526;44.600;26.032;2024-03-08T01:04:38;101000.81;;;3.86;70.42
79123;BME280;68526;44.600;26.032;2024-03-08T01:04:54;100998.09;;;3.86;70.40
79123;BME280;68526;44.600;26.032;2024-03-08T01:05:10;100997.28;;;3.86;70.42
79123;BME280;68526;44.600;26.032;2024-03-08T01:05:26;100998.09;;;3.86;70.66
79123;BME280;68526;44.600;26.032;2024-03-08T01:05:43;100998.09;;;3.86;70.51
79123;BME280;68526;44.600;26.032;2024-03-08T01:06:00;100992.03;;;3.79;70.14
79123;BME280;68526;44.600;26.032;2024-03-08T01:06:16;100995.34;;;3.81;70.25
79123;BME280;68526;44.600;26.032;2024-03-08T01:06:32;100992.63;;;3.81;70.68
79123;BME280;68526;44.600;26.032;2024-03-08T01:06:49;100997.50;;;3.84;70.17
79123;BME280;68526;44.600;26.032;2024-03-08T01:07:05;100994.56;;;3.86;70.72
79123;BME280;68526;44.600;26.032;2024-03-08T01:07:21;100991.59;;;3.87;70.20
79123;BME280;68526;44.600;26.032;2024-03-08T01:07:37;101003.25;;;3.88;70.09
79123;BME280;68526;44.600;26.032;2024-03-08T01:07:53;100990.19;;;3.85;70.45
79123;BME280;68526;44.600;26.032;2024-03-08T01:08:10;100993.16;;;3.83;70.32
79123;BME280;68526;44.600;26.032;2024-03-08T01:08:27;100969.28;;;3.75;70.47
79123;BME280;68526;44.600;26.032;2024-03-08T01:08:43;100991.59;;;3.87;70.19
79123;BME280;68526;44.600;26.032;2024-03-08T01:08:59;100991.84;;;3.86;70.20
79123;BME280;68526;44.600;26.032;2024-03-08T01:09:15;100987.25;;;3.86;70.46
79123;BME280;68526;44.600;26.032;2024-03-08T01:09:33;100995.38;;;3.86;70.30
79123;BME280;68526;44.600;26.032;2024-03-08T01:09:49;100990.47;;;3.83;70.17
79123;BME280;68526;44.600;26.032;2024-03-08T01:10:07;100990.19;;;3.85;70.33
79123;BME280;68526;44.600;26.032;2024-03-08T01:10:25;100988.56;;;3.84;70.42
79123;BME280;68526;44.600;26.032;2024-03-08T01:10:41;100998.09;;;3.86;70.45
79123;BME280;68526;44.600;26.032;2024-03-08T01:10:57;100990.50;;;3.88;70.63
79123;BME280;68526;44.600;26.032;2024-03-08T01:11:13;100985.81;;;3.79;70.87
79123;BME280;68526;44.600;26.032;2024-03-08T01:11:30;100990.78;;;3.87;70.18
79123;BME280;68526;44.600;26.032;2024-03-08T01:11:46;100988.88;;;3.87;70.36
79123;BME280;68526;44.600;26.032;2024-03-08T01:12:03;100991.59;;;3.87;69.97
79123;BME280;68526;44.600;26.032;2024-03-08T01:12:19;100998.31;;;3.85;70.20
79123;BME280;68526;44.600;26.032;2024-03-08T01:12:35;101001.63;;;3.87;70.10
79123;BME280;68526;44.600;26.032;2024-03-08T01:12:51;100984.78;;;3.85;70.40
79123;BME280;68526;44.600;26.032;2024-03-08T01:13:10;100999.13;;;3.85;70.13
79123;BME280;68526;44.600;26.032;2024-03-08T01:13:26;100997.50;;;3.84;69.99
79123;BME280;68526;44.600;26.032;2024-03-08T01:13:43;100989.38;;;3.84;70.29
79123;BME280;68526;44.600;26.032;2024-03-08T01:13:59;100991.00;;;3.85;70.20
79123;BME280;68526;44.600;26.032;2024-03-08T01:14:15;100989.16;;;3.86;69.96
79123;BME280;68526;44.600;26.032;2024-03-08T01:14:31;100991.59;;;3.87;69.94
79123;BME280;68526;44.600;26.032;2024-03-08T01:14:48;100987.25;;;3.86;69.81
79123;BME280;68526;44.600;26.032;2024-03-08T01:15:05;100993.72;;;3.85;69.91
79123;BME280;68526;44.600;26.032;2024-03-08T01:15:23;100984.78;;;3.85;69.79
79123;BME280;68526;44.600;26.032;2024-03-08T01:15:39;100985.03;;;3.83;70.13
79123;BME280;68526;44.600;26.032;2024-03-08T01:15:57;100970.09;;;3.75;69.90
79123;BME280;68526;44.600;26.032;2024-03-08T01:16:13;100991.28;;;3.84;69.92
79123;BME280;68526;44.600;26.032;2024-03-08T01:16:29;100994.81;;;3.84;70.17
79123;BME280;68526;44.600;26.032;2024-03-08T01:16:45;100983.97;;;3.84;70.17
79123;BME280;68526;44.600;26.032;2024-03-08T01:17:01;100985.34;;;3.87;70.23
79123;BME280;68526;44.600;26.032;2024-03-08T01:17:17;100990.78;;;3.87;70.13
79123;BME280;68526;44.600;26.032;2024-03-08T01:17:34;100991.00;;;3.85;70.05
79123;BME280;68526;44.600;26.032;2024-03-08T01:17:50;100990.19;;;3.85;70.29
79123;BME280;68526;44.600;26.032;2024-03-08T01:18:07;100982.34;;;3.83;70.43
79123;BME280;68526;44.600;26.032;2024-03-08T01:18:24;100989.97;;;3.86;70.16
79123;BME280;68526;44.600;26.032;2024-03-08T01:18:40;100998.09;;;3.86;70.20
79123;BME280;68526;44.600;26.032;2024-03-08T01:18:56;100985.03;;;3.83;69.64
79123;BME280;68526;44.600;26.032;2024-03-08T01:19:12;100983.72;;;3.86;69.71
79123;BME280;68526;44.600;26.032;2024-03-08T01:19:31;100981.22;;;3.79;70.09
79123;BME280;68526;44.600;26.032;2024-03-08T01:19:48;100985.84;;;3.84;69.88
79123;BME280;68526;44.600;26.032;2024-03-08T01:20:06;100986.13;;;3.82;70.26
79123;BME280;68526;44.600;26.032;2024-03-08T01:20:22;100983.97;;;3.84;70.18
79123;BME280;68526;44.600;26.032;2024-03-08T01:20:38;100988.28;;;3.85;70.34
79123;BME280;68526;44.600;26.032;2024-03-08T01:20:55;100981.81;;;3.86;70.16
79123;BME280;68526;44.600;26.032;2024-03-08T01:21:12;100990.19;;;3.85;70.13
79123;BME280;68526;44.600;26.032;2024-03-08T01:21:28;100982.34;;;3.83;69.95
79123;BME280;68526;44.600;26.032;2024-03-08T01:21:45;100986.66;;;3.84;69.92
79123;BME280;68526;44.600;26.032;2024-03-08T01:22:02;100982.88;;;3.85;70.31
79123;BME280;68526;44.600;26.032;2024-03-08T01:22:18;100979.34;;;3.85;69.90
79123;BME280;68526;44.600;26.032;2024-03-08T01:22:34;100989.91;;;3.81;70.10
79123;BME280;68526;44.600;26.032;2024-03-08T01:22:50;100989.91;;;3.81;69.86
79123;BME280;68526;44.600;26.032;2024-03-08T01:23:06;100988.03;;;3.82;69.97
79123;BME280;68526;44.600;26.032;2024-03-08T01:23:23;100986.94;;;3.83;70.09
79123;BME280;68526;44.600;26.032;2024-03-08T01:23:40;100981.78;;;3.81;70.24
79123;BME280;68526;44.600;26.032;2024-03-08T01:23:56;100987.47;;;3.80;70.23
79123;BME280;68526;44.600;26.032;2024-03-08T01:24:12;100984.50;;;3.81;70.28
79123;BME280;68526;44.600;26.032;2024-03-08T01:24:28;100982.34;;;3.83;70.33
79123;BME280;68526;44.600;26.032;2024-03-08T01:24:44;100983.16;;;3.84;69.99
79123;BME280;68526;44.600;26.032;2024-03-08T01:25:00;100978.00;;;3.82;70.57
79123;BME280;68526;44.600;26.032;2024-03-08T01:25:20;100977.72;;;3.84;69.85
79123;BME280;68526;44.600;26.032;2024-03-08T01:25:36;100983.72;;;3.86;70.16
79123;BME280;68526;44.600;26.032;2024-03-08T01:25:52;100986.16;;;3.87;70.30
79123;BME280;68526;44.600;26.032;2024-03-08T01:26:12;100979.88;;;3.82;70.22
79123;BME280;68526;44.600;26.032;2024-03-08T01:26:30;100979.63;;;3.83;70.01
79123;BME280;68526;44.600;26.032;2024-03-08T01:26:49;100984.78;;;3.85;70.45